createdAt,value
2022-11-08T00:01:27.682Z,99051.53
2022-11-08T00:04:16.031Z,99062.47
2022-11-08T00:07:23.054Z,99064.09
2022-11-08T00:10:23.617Z,99061.91
2022-11-08T00:13:33.045Z,99073.03
2022-11-08T00:16:15.748Z,99084.19
2022-11-08T00:19:04.166Z,99080.38
2022-11-08T00:21:46.422Z,99081.47
2022-11-08T00:24:35.116Z,99079.59
2022-11-08T00:27:29.416Z,99090.47
2022-11-08T00:30:18.521Z,99091.56
2022-11-08T00:33:00.522Z,99094.81
2022-11-08T00:35:49.141Z,99099.69
2022-11-08T00:38:31.441Z,99114.66
2022-11-08T00:41:20.205Z,99111.34
2022-11-08T00:44:02.436Z,99121.50
2022-11-08T00:46:51.152Z,99128.59
2022-11-08T00:49:33.478Z,99128.47
2022-11-08T00:52:22.150Z,99130.13
2022-11-08T00:55:11.140Z,99121.44
2022-11-08T00:57:59.449Z,99117.59
2022-11-08T01:00:49.102Z,99126.59
2022-11-08T01:03:37.417Z,99128.47
2022-11-08T01:06:21.057Z,99132.72
2022-11-08T01:09:10.420Z,99135.97
2022-11-08T01:11:54.140Z,99131.94
2022-11-08T01:14:43.149Z,99133.00
2022-11-08T01:17:25.388Z,99138.41
2022-11-08T01:20:14.264Z,99133.31
2022-11-08T01:22:56.418Z,99145.81
2022-11-08T01:25:50.146Z,99147.41
2022-11-08T01:28:32.414Z,99152.81
2022-11-08T01:31:29.130Z,99144.63
2022-11-08T01:34:18.044Z,99151.19
2022-11-08T01:37:07.126Z,99159.38
2022-11-08T01:39:56.046Z,99159.97
2022-11-08T01:42:45.191Z,99163.88
2022-11-08T01:46:04.436Z,99168.25
2022-11-08T01:49:12.179Z,99173.19
2022-11-08T01:52:16.438Z,99165.56
2022-11-08T01:55:28.112Z,99171.28
2022-11-08T01:58:28.426Z,99172.66
2022-11-08T02:01:18.080Z,99180.34
2022-11-08T02:04:00.438Z,99179.25
2022-11-08T02:06:51.130Z,99183.91
2022-11-08T02:09:40.012Z,99181.72
2022-11-08T02:12:31.147Z,99184.22
2022-11-08T02:15:14.456Z,99190.78
2022-11-08T02:18:03.159Z,99190.84
2022-11-08T02:20:45.391Z,99198.47
2022-11-08T02:23:58.062Z,99197.41
2022-11-08T02:26:42.771Z,99207.25
2022-11-08T02:29:43.039Z,99213.34
2022-11-08T02:32:32.409Z,99206.81
2022-11-08T02:35:20.038Z,99216.09
2022-11-08T02:38:08.568Z,99218.56
2022-11-08T02:41:01.050Z,99223.22
2022-11-08T02:43:53.316Z,99227.56
2022-11-08T02:46:35.398Z,99220.53
2022-11-08T02:49:24.153Z,99225.72
2022-11-08T02:52:06.412Z,99236.91
2022-11-08T02:54:55.129Z,99240.22
2022-11-08T02:57:37.544Z,99238.78
2022-11-08T03:00:26.133Z,99246.78
2022-11-08T03:03:08.405Z,99247.88
2022-11-08T03:05:57.116Z,99256.53
2022-11-08T03:08:39.389Z,99268.84
2022-11-08T03:11:28.117Z,99261.97
2022-11-08T03:14:10.377Z,99277.88
2022-11-08T03:16:59.120Z,99268.34
2022-11-08T03:19:41.399Z,99283.72
2022-11-08T03:22:30.105Z,99287.75
2022-11-08T03:25:12.396Z,99293.97
2022-11-08T03:28:01.108Z,99289.78
2022-11-08T03:30:44.403Z,99283.66
2022-11-08T03:33:33.120Z,99275.91
2022-11-08T03:36:15.644Z,99284.19
2022-11-08T03:39:04.011Z,99293.03
2022-11-08T03:41:46.411Z,99291.53
2022-11-08T03:44:35.191Z,99284.53
2022-11-08T03:47:17.401Z,99283.00
2022-11-08T03:50:06.122Z,99282.47
2022-11-08T03:52:52.434Z,99283.94
2022-11-08T03:55:41.037Z,99286.31
2022-11-08T03:58:23.412Z,99285.44
2022-11-08T04:01:14.139Z,99283.53
2022-11-08T04:03:56.465Z,99282.91
2022-11-08T04:06:45.119Z,99282.56
2022-11-08T04:09:34.187Z,99284.78
2022-11-08T04:12:34.716Z,99284.78
2022-11-08T04:15:29.123Z,99286.25
2022-11-08T04:18:36.172Z,99295.91
2022-11-08T04:21:32.170Z,99291.94
2022-11-08T04:24:21.132Z,99305.25
2022-11-08T04:27:03.859Z,99305.09
2022-11-08T04:29:53.120Z,99305.78
2022-11-08T04:32:41.386Z,99319.88
2022-11-08T04:35:24.096Z,99312.56
2022-11-08T04:38:13.020Z,99310.72
2022-11-08T04:41:03.127Z,99317.66
2022-11-08T04:43:52.442Z,99314.53
2022-11-08T04:46:36.121Z,99308.66
2022-11-08T04:49:31.121Z,99309.59
2022-11-08T04:52:13.267Z,99309.44
2022-11-08T04:55:02.194Z,99314.09
2022-11-08T04:57:44.286Z,99304.41
2022-11-08T05:00:33.102Z,99308.59
2022-11-08T05:03:15.287Z,99300.13
2022-11-08T05:06:04.125Z,99298.19
2022-11-08T05:08:53.399Z,99297.75
2022-11-08T05:11:38.030Z,99294.16
2022-11-08T05:14:26.397Z,99298.56
2022-11-08T05:17:08.088Z,99290.81
2022-11-08T05:20:08.846Z,99293.00
2022-11-08T05:23:17.096Z,99285.25
2022-11-08T05:25:59.377Z,99286.69
2022-11-08T05:28:51.112Z,99282.16
2022-11-08T05:31:47.161Z,99281.91
2022-11-08T05:34:29.464Z,99281.03
2022-11-08T05:37:18.096Z,99281.59
2022-11-08T05:40:06.390Z,99272.53
2022-11-08T05:42:49.167Z,99272.66
2022-11-08T05:45:31.361Z,99274.19
2022-11-08T05:48:20.508Z,99278.84
2022-11-08T05:51:09.584Z,99268.00
2022-11-08T05:53:54.120Z,99257.88
2022-11-08T05:56:43.705Z,99267.22
2022-11-08T05:59:25.114Z,99259.53
2022-11-08T06:02:14.949Z,99260.41
2022-11-08T06:04:58.020Z,99256.72
2022-11-08T06:07:47.115Z,99250.03
2022-11-08T06:10:30.409Z,99260.41
2022-11-08T06:13:19.175Z,99259.34
2022-11-08T06:16:01.500Z,99251.97
2022-11-08T06:18:51.126Z,99248.75
2022-11-08T06:21:33.394Z,99248.53
2022-11-08T06:24:25.094Z,99241.75
2022-11-08T06:27:14.033Z,99228.97
2022-11-08T06:30:03.091Z,99233.03
2022-11-08T06:32:51.451Z,99227.16
2022-11-08T06:35:34.088Z,99222.91
2022-11-08T06:38:23.611Z,99219.84
2022-11-08T06:41:09.096Z,99204.25
2022-11-08T06:43:57.402Z,99195.66
2022-11-08T06:46:40.173Z,99194.16
2022-11-08T06:49:28.369Z,99196.22
2022-11-08T06:52:11.175Z,99191.34
2022-11-08T06:54:53.839Z,99173.44
2022-11-08T06:57:44.171Z,99179.94
2022-11-08T07:00:33.383Z,99173.28
2022-11-08T07:03:15.299Z,99157.44
2022-11-08T07:05:57.296Z,99159.88
2022-11-08T07:08:40.997Z,99166.34
2022-11-08T07:11:23.425Z,99160.53
2022-11-08T07:14:12.183Z,99154.78
2022-11-08T07:16:54.387Z,99147.56
2022-11-08T07:19:43.200Z,99139.22
2022-11-08T07:22:25.411Z,99135.97
2022-11-08T07:25:14.115Z,99136.81
2022-11-08T07:27:56.658Z,99134.72
2022-11-08T07:30:51.028Z,99124.91
2022-11-08T07:33:33.923Z,99122.03
2022-11-08T07:36:23.037Z,99121.81
2022-11-08T07:39:06.790Z,99123.75
2022-11-08T07:41:56.415Z,99120.50
2022-11-08T07:44:44.384Z,99123.47
2022-11-08T07:47:26.098Z,99114.50
2022-11-08T07:50:17.769Z,99110.75
2022-11-08T07:53:01.145Z,99111.06
2022-11-08T07:55:51.290Z,99108.91
2022-11-08T07:58:34.171Z,99106.00
2022-11-08T08:01:16.315Z,99096.44
2022-11-08T08:04:05.095Z,99103.22
2022-11-08T08:06:53.364Z,99090.78
2022-11-08T08:09:36.031Z,99089.16
2022-11-08T08:12:25.036Z,99087.16
2022-11-08T08:15:14.123Z,99082.66
2022-11-08T08:18:03.098Z,99075.84
2022-11-08T08:20:46.413Z,99076.66
2022-11-08T08:23:35.114Z,99073.56
2022-11-08T08:26:17.370Z,99071.03
2022-11-08T08:29:06.104Z,99068.38
2022-11-08T08:31:54.365Z,99064.88
2022-11-08T08:34:37.116Z,99057.06
2022-11-08T08:37:25.398Z,99053.91
2022-11-08T08:40:07.100Z,99045.59
2022-11-08T08:42:55.469Z,99052.38
2022-11-08T08:45:38.094Z,99049.06
2022-11-08T08:48:26.398Z,99045.31
2022-11-08T08:51:09.412Z,99038.66
2022-11-08T08:53:51.247Z,99039.56
2022-11-08T08:56:40.111Z,99032.78
2022-11-08T09:02:31.005Z,99024.03
2022-11-08T09:05:14.959Z,99020.91
2022-11-08T09:08:04.179Z,99014.41
2022-11-08T09:10:52.390Z,99019.44
2022-11-08T09:13:36.120Z,99014.78
2022-11-08T09:16:25.087Z,99009.91
2022-11-08T09:19:07.358Z,99010.66
2022-11-08T09:21:56.193Z,99005.13
2022-11-08T09:24:38.359Z,98998.78
2022-11-08T09:27:27.115Z,98999.66
2022-11-08T09:30:09.362Z,98988.38
2022-11-08T09:33:03.441Z,98997.13
2022-11-08T09:35:47.310Z,98987.69
2022-11-08T09:38:36.403Z,98980.31
2022-11-08T09:41:55.501Z,98985.59
2022-11-08T09:44:54.001Z,98975.75
2022-11-08T09:47:47.793Z,98981.75
2022-11-08T09:50:41.014Z,98973.28
2022-11-08T09:53:35.873Z,98971.03
2022-11-08T09:56:29.111Z,98968.63
2022-11-08T09:59:14.403Z,98965.50
2022-11-08T10:02:03.399Z,98958.22
2022-11-08T10:04:45.364Z,98959.81
2022-11-08T10:07:43.099Z,98958.41
2022-11-08T10:11:29.363Z,98946.31
2022-11-08T10:14:21.167Z,98941.13
2022-11-08T10:17:44.371Z,98940.50
2022-11-08T10:20:57.111Z,98943.44
2022-11-08T10:23:55.165Z,98944.81
2022-11-08T10:26:49.394Z,98934.41
2022-11-08T10:29:46.078Z,98932.66
2022-11-08T10:32:38.403Z,98926.81
2022-11-08T10:35:21.164Z,98925.38
2022-11-08T10:38:13.254Z,98925.47
2022-11-08T10:41:16.372Z,98919.97
2022-11-08T10:44:18.436Z,98913.72
2022-11-08T10:47:13.985Z,98912.94
2022-11-08T10:50:04.622Z,98918.81
2022-11-08T10:53:08.096Z,98915.75
2022-11-08T10:55:52.985Z,98918.50
2022-11-08T10:58:47.436Z,98913.19
2022-11-08T11:01:35.493Z,98911.38
2022-11-08T11:04:36.106Z,98908.94
2022-11-08T11:07:42.992Z,98912.00
2022-11-08T11:10:52.021Z,98909.94
2022-11-08T11:13:40.368Z,98907.13
2022-11-08T11:16:24.151Z,98902.78
2022-11-08T11:19:14.377Z,98897.28
2022-11-08T11:22:04.077Z,98888.34
2022-11-08T11:24:53.075Z,98890.75
2022-11-08T11:27:50.077Z,98899.69
2022-11-08T11:30:55.088Z,98893.69
2022-11-08T11:33:59.076Z,98890.09
2022-11-08T11:36:47.380Z,98896.75
2022-11-08T11:39:38.993Z,98889.91
2022-11-08T11:42:45.329Z,98892.66
2022-11-08T11:45:43.083Z,98893.59
2022-11-08T11:48:36.000Z,98885.13
2022-11-08T11:51:25.164Z,98889.47
2022-11-08T11:54:11.372Z,98888.31
2022-11-08T11:57:23.104Z,98886.22
2022-11-08T12:00:09.351Z,98892.19
2022-11-08T12:03:39.094Z,98885.88
2022-11-08T12:06:31.038Z,98894.25
2022-11-08T12:09:47.996Z,98892.47
2022-11-08T12:13:11.375Z,98897.03
2022-11-08T12:16:24.999Z,98890.41
2022-11-08T12:19:24.374Z,98894.25
2022-11-08T12:22:56.223Z,98901.41
2022-11-08T12:25:55.532Z,98901.09
2022-11-08T12:29:01.112Z,98907.28
2022-11-08T12:31:59.747Z,98900.81
2022-11-08T12:34:59.975Z,98908.75
2022-11-08T12:38:07.078Z,98914.69
2022-11-08T12:40:49.587Z,98912.34
2022-11-08T12:44:01.094Z,98920.16
2022-11-08T12:47:16.987Z,98918.91
2022-11-08T12:50:24.004Z,98922.22
2022-11-08T12:53:12.399Z,98926.44
2022-11-08T12:56:05.114Z,98930.28
2022-11-08T12:58:57.371Z,98926.88
2022-11-08T13:01:47.993Z,98938.44
2022-11-08T13:04:53.017Z,98942.81
2022-11-08T13:08:23.351Z,98952.81
2022-11-08T13:11:14.009Z,98949.44
2022-11-08T13:13:58.092Z,98957.78
2022-11-08T13:16:52.989Z,98962.09
2022-11-08T13:20:03.422Z,98966.94
2022-11-08T13:22:55.020Z,98964.06
2022-11-08T13:25:44.446Z,98965.22
2022-11-08T13:28:48.078Z,98962.69
2022-11-08T13:31:48.012Z,98976.59
2022-11-08T13:35:00.345Z,98977.28
2022-11-08T13:38:10.081Z,98982.69
2022-11-08T13:41:19.483Z,98982.78
2022-11-08T13:44:07.984Z,98985.03
2022-11-08T13:46:54.434Z,98987.69
2022-11-08T13:49:43.166Z,98989.31
2022-11-08T13:52:55.455Z,98986.47
2022-11-08T13:55:50.115Z,98991.69
2022-11-08T13:58:43.593Z,98997.47
2022-11-08T14:01:37.497Z,98998.13
2022-11-08T14:04:41.069Z,99000.53
2022-11-08T14:07:51.124Z,99008.69
2022-11-08T14:11:08.985Z,99012.03
2022-11-08T14:14:00.178Z,99015.19
2022-11-08T14:17:16.030Z,99022.72
2022-11-08T14:20:18.352Z,99015.84
2022-11-08T14:23:07.072Z,99023.91
2022-11-08T14:26:08.408Z,99022.25
2022-11-08T14:28:54.046Z,99024.88
2022-11-08T14:31:49.987Z,99027.59
2022-11-08T14:34:44.665Z,99029.44
2022-11-08T14:37:31.972Z,99033.91
2022-11-08T14:40:29.363Z,99029.63
2022-11-08T14:43:11.989Z,99034.75
2022-11-08T14:46:01.384Z,99034.00
2022-11-08T14:48:43.018Z,99040.06
2022-11-08T14:51:34.338Z,99045.63
2022-11-08T14:54:34.052Z,99036.53
2022-11-08T14:57:48.068Z,99038.06
2022-11-08T15:00:30.329Z,99044.13
2022-11-08T15:03:21.217Z,99045.94
2022-11-08T15:06:14.463Z,99039.03
2022-11-08T15:09:00.048Z,99038.28
2022-11-08T15:11:44.180Z,99045.19
2022-11-08T15:14:35.991Z,99043.91
2022-11-08T15:17:37.863Z,99041.69
2022-11-08T15:20:27.112Z,99045.91
2022-11-08T15:23:54.315Z,99043.22
2022-11-08T15:26:44.072Z,99045.88
2022-11-08T15:29:27.594Z,99049.16
2022-11-08T15:32:16.074Z,99046.53
2022-11-08T15:35:05.516Z,99049.34
2022-11-08T15:37:52.079Z,99052.63
2022-11-08T15:40:43.988Z,99055.75
2022-11-08T15:43:38.536Z,99063.44
2022-11-08T15:46:46.090Z,99065.19
2022-11-08T15:49:37.976Z,99068.72
2022-11-08T15:52:26.993Z,99071.00
2022-11-08T15:55:09.345Z,99072.66
2022-11-08T15:57:59.017Z,99072.84
2022-11-08T16:00:49.054Z,99072.09
2022-11-08T16:03:32.210Z,99077.56
2022-11-08T16:06:21.034Z,99072.63
2022-11-08T16:09:03.422Z,99075.34
2022-11-08T16:11:53.017Z,99079.22
2022-11-08T16:14:35.342Z,99084.88
2022-11-08T16:17:30.001Z,99074.16
2022-11-08T16:20:23.661Z,99085.97
2022-11-08T16:23:17.008Z,99085.94
2022-11-08T16:26:01.950Z,99082.13
2022-11-08T16:28:51.999Z,99087.91
2022-11-08T16:31:40.986Z,99081.44
2022-11-08T16:34:30.462Z,99084.97
2022-11-08T16:37:12.027Z,99085.22
2022-11-08T16:40:02.547Z,99086.06
2022-11-08T16:42:44.062Z,99090.75
2022-11-08T16:45:58.478Z,99086.41
2022-11-08T16:48:35.049Z,99085.63
2022-11-08T16:51:28.992Z,99080.44
2022-11-08T16:54:19.123Z,99081.84
2022-11-08T16:57:28.491Z,99087.59
2022-11-08T17:00:11.179Z,99092.81
2022-11-08T17:03:01.334Z,99090.06
2022-11-08T17:05:43.050Z,99086.25
2022-11-08T17:08:28.866Z,99090.03
2022-11-08T17:11:18.098Z,99082.13
2022-11-08T17:14:00.364Z,99085.19
2022-11-08T17:16:49.053Z,99083.84
2022-11-08T17:19:38.046Z,99081.06
2022-11-08T17:22:20.502Z,99091.22
2022-11-08T17:25:09.043Z,99091.25
2022-11-08T17:27:58.979Z,99092.13
2022-11-08T17:30:45.196Z,99090.25
2022-11-08T17:33:34.070Z,99091.03
2022-11-08T17:36:22.981Z,99089.16
2022-11-08T17:39:07.074Z,99086.94
2022-11-08T17:41:56.074Z,99092.38
2022-11-08T17:44:45.055Z,99083.66
2022-11-08T17:47:35.449Z,99079.25
2022-11-08T17:50:18.058Z,99089.16
2022-11-08T17:53:07.476Z,99092.19
2022-11-08T17:55:49.187Z,99086.66
2022-11-08T17:58:39.094Z,99081.72
2022-11-08T18:01:23.244Z,99083.72
2022-11-08T18:04:05.543Z,99076.00
2022-11-08T18:06:54.119Z,99067.81
2022-11-08T18:09:43.093Z,99071.31
2022-11-08T18:12:25.362Z,99068.94
2022-11-08T18:15:13.946Z,99072.75
2022-11-08T18:18:02.966Z,99076.06
2022-11-08T18:20:52.478Z,99071.16
2022-11-08T18:23:35.420Z,99071.16
2022-11-08T18:26:25.408Z,99066.22
2022-11-08T18:29:09.082Z,99070.06
2022-11-08T18:31:57.338Z,99069.53
2022-11-08T18:34:51.964Z,99066.81
2022-11-08T18:37:40.407Z,99062.97
2022-11-08T18:40:23.098Z,99064.66
2022-11-08T18:43:12.087Z,99057.50
2022-11-08T18:45:54.470Z,99058.34
2022-11-08T18:48:43.075Z,99051.47
2022-11-08T18:51:27.376Z,99048.22
2022-11-08T18:54:17.058Z,99053.47
2022-11-08T18:56:59.484Z,99047.47
2022-11-08T18:59:48.088Z,99042.28
2022-11-08T19:02:30.745Z,99038.50
2022-11-08T19:05:20.178Z,99030.81
2022-11-08T19:08:02.519Z,99033.00
2022-11-08T19:11:06.249Z,99038.69
2022-11-08T19:13:50.529Z,99030.81
2022-11-08T19:16:39.036Z,99032.47
2022-11-08T19:19:21.544Z,99036.28
2022-11-08T19:22:10.039Z,99027.75
2022-11-08T19:24:52.344Z,99036.00
2022-11-08T19:27:42.095Z,99025.84
2022-11-08T19:30:24.754Z,99029.16
2022-11-08T19:33:14.046Z,99027.00
2022-11-08T19:36:13.915Z,99032.16
2022-11-08T19:39:06.046Z,99028.63
2022-11-08T19:41:55.060Z,99026.47
2022-11-08T19:44:45.031Z,99020.47
2022-11-08T19:47:34.040Z,99015.00
2022-11-08T19:50:23.027Z,99020.75
2022-11-08T19:53:12.022Z,99013.97
2022-11-08T19:57:02.035Z,99019.41
2022-11-08T19:59:32.584Z,99020.50
2022-11-08T20:02:21.008Z,99016.63
2022-11-08T20:05:03.482Z,99014.22
2022-11-08T20:07:55.035Z,99013.38
2022-11-08T20:10:37.303Z,99017.22
2022-11-08T20:13:27.068Z,99015.84
2022-11-08T20:16:19.464Z,99007.16
2022-11-08T20:19:15.044Z,99009.84
2022-11-08T20:22:04.041Z,99008.81
2022-11-08T20:24:46.797Z,99012.03
2022-11-08T20:27:36.050Z,99008.78
2022-11-08T20:30:18.316Z,99010.75
2022-11-08T20:33:07.023Z,99014.06
2022-11-08T20:35:55.297Z,99011.06
2022-11-08T20:38:53.038Z,99013.25
2022-11-08T20:41:36.524Z,99016.56
2022-11-08T20:44:25.053Z,99010.00
2022-11-08T20:47:08.714Z,99019.84
2022-11-08T20:49:59.015Z,99031.03
2022-11-08T20:52:48.028Z,99026.69
2022-11-08T20:55:30.501Z,99028.84
2022-11-08T20:58:19.232Z,99026.13
2022-11-08T21:01:02.907Z,99022.34
2022-11-08T21:03:53.073Z,99020.13
2022-11-08T21:06:36.312Z,99025.88
2022-11-08T21:09:37.208Z,99014.16
2022-11-08T21:12:27.086Z,99010.00
2022-11-08T21:15:15.922Z,99018.50
2022-11-08T21:18:06.038Z,99012.50
2022-11-08T21:20:49.291Z,99013.59
2022-11-08T21:23:39.048Z,99007.59
2022-11-08T21:26:23.361Z,99009.47
2022-11-08T21:29:13.047Z,99007.28
2022-11-08T21:32:01.944Z,98996.16
2022-11-08T21:34:56.881Z,98995.88
2022-11-08T21:37:39.013Z,98993.41
2022-11-08T21:40:27.913Z,98988.50
2022-11-08T21:43:17.015Z,98991.22
2022-11-08T21:46:05.937Z,98984.16
2022-11-08T21:48:48.379Z,98994.25
2022-11-08T21:51:38.016Z,98989.88
2022-11-08T21:54:20.270Z,98984.69
2022-11-08T21:57:09.060Z,98980.84
2022-11-08T21:59:51.329Z,98978.09
2022-11-08T22:02:39.933Z,98985.19
2022-11-08T22:05:29.003Z,98977.00
2022-11-08T22:08:18.294Z,98980.25
2022-11-08T22:11:07.052Z,98982.97
2022-11-08T22:13:55.933Z,98982.22
2022-11-08T22:16:45.032Z,98987.09
2022-11-08T22:19:33.930Z,98988.16
2022-11-08T22:22:23.917Z,98992.03
2022-11-08T22:25:12.914Z,98996.69
2022-11-08T22:28:02.069Z,98997.50
2022-11-08T22:30:58.318Z,99000.50
2022-11-08T22:33:40.024Z,98996.13
2022-11-08T22:36:28.856Z,98995.56
2022-11-08T22:39:11.998Z,99007.03
2022-11-08T22:41:57.006Z,99001.56
2022-11-08T22:44:45.960Z,98998.00
2022-11-08T22:47:34.336Z,98997.19
2022-11-08T22:50:17.016Z,99009.47
2022-11-08T22:52:59.299Z,99007.56
2022-11-08T22:55:48.017Z,99001.03
2022-11-08T22:58:31.155Z,99008.66
2022-11-08T23:01:21.016Z,99010.31
2022-11-08T23:04:03.444Z,99004.84
2022-11-08T23:06:53.109Z,99010.84
2022-11-08T23:09:41.315Z,99004.28
2022-11-08T23:12:41.909Z,99008.66
2022-11-08T23:15:42.344Z,99006.47
2022-11-08T23:18:30.931Z,99006.47
2022-11-08T23:21:31.541Z,99006.78
2022-11-08T23:24:29.018Z,99007.84
2022-11-08T23:27:30.837Z,99005.38
2022-11-08T23:30:39.050Z,99001.00
2022-11-08T23:33:27.938Z,99009.47
2022-11-08T23:36:20.013Z,99009.22
2022-11-08T23:39:02.196Z,99006.22
2022-11-08T23:42:09.022Z,99016.88
2022-11-08T23:44:51.208Z,99010.31
2022-11-08T23:47:39.909Z,99017.97
2022-11-08T23:50:22.527Z,99015.53
2022-11-08T23:53:14.071Z,99016.63
2022-11-08T23:55:56.324Z,99028.91
2022-11-08T23:58:45.066Z,99018.00
